createdAt,value
2023-01-05T00:00:33.257Z,5.28
2023-01-05T00:03:00.466Z,4.75
2023-01-05T00:05:27.543Z,5.03
2023-01-05T00:07:54.743Z,4.97
2023-01-05T00:10:40.322Z,5.20
2023-01-05T00:13:27.595Z,4.97
2023-01-05T00:16:20.405Z,5.35
2023-01-05T00:19:07.082Z,5.18
2023-01-05T00:21:53.656Z,5.18
2023-01-05T00:24:21.177Z,5.43
2023-01-05T00:26:50.194Z,5.28
2023-01-05T00:29:17.488Z,5.07
2023-01-05T00:31:47.430Z,4.55
2023-01-05T00:34:15.195Z,5.07
2023-01-05T00:36:42.297Z,3.75
2023-01-05T00:39:10.763Z,5.45
2023-01-05T00:41:40.602Z,5.70
2023-01-05T00:44:10.758Z,5.18
2023-01-05T00:46:37.898Z,5.28
2023-01-05T00:49:05.042Z,5.82
2023-01-05T00:51:32.244Z,5.95
2023-01-05T00:54:00.414Z,5.78
2023-01-05T00:56:27.425Z,5.07
2023-01-05T00:58:55.315Z,6.10
2023-01-05T01:01:22.652Z,4.28
2023-01-05T01:03:49.894Z,5.57
2023-01-05T01:06:18.426Z,5.47
2023-01-05T01:08:45.517Z,5.80
2023-01-05T01:11:13.248Z,6.75
2023-01-05T01:13:40.983Z,4.63
2023-01-05T01:16:16.059Z,5.95
2023-01-05T01:18:43.690Z,6.72
2023-01-05T01:21:10.968Z,5.75
2023-01-05T01:23:40.008Z,5.53
2023-01-05T01:26:11.084Z,5.70
2023-01-05T01:28:40.644Z,5.53
2023-01-05T01:31:10.939Z,5.22
2023-01-05T01:33:40.909Z,5.43
2023-01-05T01:36:10.399Z,5.95
2023-01-05T01:38:37.968Z,5.20
2023-01-05T01:41:09.704Z,5.55
2023-01-05T01:46:15.458Z,5.35
2023-01-05T01:48:52.200Z,4.97
2023-01-05T01:51:27.325Z,5.20
2023-01-05T01:54:07.187Z,5.53
2023-01-05T01:56:48.757Z,5.45
2023-01-05T01:59:17.882Z,5.70
2023-01-05T02:01:48.179Z,5.20
2023-01-05T02:04:15.445Z,5.70
2023-01-05T02:06:42.910Z,6.50
2023-01-05T02:09:17.726Z,5.78
2023-01-05T02:12:06.265Z,5.32
2023-01-05T02:14:48.404Z,5.50
2023-01-05T02:17:40.006Z,5.90
2023-01-05T02:20:29.544Z,5.85
2023-01-05T02:23:36.337Z,5.35
2023-01-05T02:26:37.981Z,5.28
2023-01-05T02:29:39.603Z,4.82
2023-01-05T02:32:34.099Z,5.40
2023-01-05T02:35:10.870Z,5.95
2023-01-05T02:38:09.622Z,5.85
2023-01-05T02:40:45.151Z,6.00
2023-01-05T02:43:14.314Z,5.40
2023-01-05T02:45:42.453Z,6.00
2023-01-05T02:48:13.108Z,6.50
2023-01-05T02:51:01.696Z,5.47
2023-01-05T02:53:33.924Z,4.78
2023-01-05T02:56:09.076Z,5.57
2023-01-05T02:59:01.596Z,6.03
2023-01-05T03:01:40.292Z,5.60
2023-01-05T03:04:16.503Z,6.57
2023-01-05T03:07:00.791Z,6.65
2023-01-05T03:09:38.035Z,6.05
2023-01-05T03:12:36.060Z,5.63
2023-01-05T03:15:10.843Z,5.32
2023-01-05T03:17:54.847Z,6.28
2023-01-05T03:20:25.113Z,5.15
2023-01-05T03:26:04.847Z,6.00
2023-01-05T03:28:59.047Z,7.68
2023-01-05T03:32:03.055Z,5.47
2023-01-05T03:35:10.276Z,10.30
2023-01-05T03:37:45.044Z,6.15
2023-01-05T03:40:22.456Z,5.95
2023-01-05T03:42:52.840Z,6.78
2023-01-05T03:45:26.127Z,6.25
2023-01-05T03:47:53.834Z,6.43
2023-01-05T03:50:26.426Z,7.87
2023-01-05T03:52:54.541Z,5.68
2023-01-05T03:55:24.590Z,7.10
2023-01-05T03:57:53.907Z,5.80
2023-01-05T04:00:22.144Z,6.93
2023-01-05T04:02:58.805Z,5.35
2023-01-05T04:05:29.129Z,6.00
2023-01-05T04:07:56.250Z,5.50
2023-01-05T04:10:24.074Z,6.40
2023-01-05T04:12:52.186Z,5.97
2023-01-05T04:15:19.401Z,6.70
2023-01-05T04:17:47.970Z,5.55
2023-01-05T04:20:15.248Z,6.03
2023-01-05T04:22:44.298Z,5.18
2023-01-05T04:25:13.116Z,5.30
2023-01-05T04:27:43.824Z,6.20
2023-01-05T04:30:12.946Z,6.10
2023-01-05T04:32:40.408Z,6.10
2023-01-05T04:35:11.906Z,5.70
2023-01-05T04:37:40.952Z,6.18
2023-01-05T04:40:09.418Z,6.38
2023-01-05T04:42:45.263Z,5.65
2023-01-05T04:45:16.425Z,6.15
2023-01-05T04:47:46.897Z,5.78
2023-01-05T04:50:19.794Z,5.25
2023-01-05T04:52:51.080Z,5.65
2023-01-05T04:55:24.167Z,5.97
2023-01-05T04:57:52.949Z,6.47
2023-01-05T05:00:22.575Z,5.30
2023-01-05T05:02:55.378Z,6.75
2023-01-05T05:05:24.069Z,6.78
2023-01-05T05:07:55.132Z,6.63
2023-01-05T05:12:55.476Z,6.70
2023-01-05T05:15:25.592Z,6.55
2023-01-05T05:17:53.783Z,5.88
2023-01-05T05:20:23.311Z,6.38
2023-01-05T05:22:50.703Z,5.75
2023-01-05T05:25:20.600Z,6.20
2023-01-05T05:27:48.811Z,6.28
2023-01-05T05:30:15.722Z,6.65
2023-01-05T05:32:48.683Z,6.20
2023-01-05T05:35:16.192Z,6.30
2023-01-05T05:37:43.247Z,6.32
2023-01-05T05:40:11.674Z,6.07
2023-01-05T05:42:39.667Z,5.90
2023-01-05T05:45:07.400Z,6.85
2023-01-05T05:47:37.416Z,6.07
2023-01-05T05:50:07.308Z,6.40
2023-01-05T05:52:38.504Z,6.72
2023-01-05T05:55:10.268Z,6.05
2023-01-05T05:57:38.332Z,6.53
2023-01-05T06:00:06.266Z,6.78
2023-01-05T06:02:40.567Z,5.60
2023-01-05T06:05:09.233Z,6.63
2023-01-05T06:07:37.571Z,6.47
2023-01-05T06:10:06.691Z,6.88
2023-01-05T06:12:33.783Z,7.15
2023-01-05T06:15:00.923Z,6.68
2023-01-05T06:17:30.199Z,6.10
2023-01-05T06:19:58.016Z,6.28
2023-01-05T06:22:25.239Z,6.97
2023-01-05T06:24:53.453Z,6.32
2023-01-05T06:27:20.411Z,6.07
2023-01-05T06:29:51.473Z,6.45
2023-01-05T06:32:21.726Z,6.18
2023-01-05T06:34:50.152Z,6.88
2023-01-05T06:37:21.861Z,6.20
2023-01-05T06:39:49.360Z,7.03
2023-01-05T06:42:23.092Z,6.05
2023-01-05T06:44:50.614Z,6.72
2023-01-05T06:47:18.124Z,6.15
2023-01-05T06:49:45.453Z,6.60
2023-01-05T06:52:16.238Z,6.57
2023-01-05T06:54:44.264Z,6.55
2023-01-05T06:57:12.502Z,6.07
2023-01-05T06:59:43.497Z,7.13
2023-01-05T07:02:16.326Z,5.80
2023-01-05T07:04:45.573Z,6.78
2023-01-05T07:07:15.700Z,6.90
2023-01-05T07:09:43.688Z,5.90
2023-01-05T07:12:16.414Z,7.32
2023-01-05T07:14:44.154Z,5.65
2023-01-05T07:17:13.471Z,7.78
2023-01-05T07:19:41.832Z,7.07
2023-01-05T07:22:09.056Z,5.43
2023-01-05T07:24:37.488Z,6.80
2023-01-05T07:27:09.972Z,6.47
2023-01-05T07:29:37.521Z,6.60
2023-01-05T07:32:07.371Z,6.88
2023-01-05T07:34:34.972Z,5.60
2023-01-05T07:37:01.962Z,6.00
2023-01-05T07:39:29.010Z,6.18
2023-01-05T07:41:56.071Z,6.28
2023-01-05T07:44:25.915Z,5.85
2023-01-05T07:46:56.338Z,6.45
2023-01-05T07:49:23.479Z,6.78
2023-01-05T07:51:50.454Z,6.05
2023-01-05T07:54:21.644Z,7.38
2023-01-05T07:56:49.810Z,6.63
2023-01-05T07:59:16.893Z,6.10
2023-01-05T08:01:44.061Z,7.18
2023-01-05T08:04:12.445Z,6.80
2023-01-05T08:06:40.502Z,6.38
2023-01-05T08:09:29.257Z,5.95
2023-01-05T08:11:57.313Z,6.55
2023-01-05T08:14:25.241Z,6.50
2023-01-05T08:16:53.811Z,7.07
2023-01-05T08:19:21.730Z,6.20
2023-01-05T08:21:51.376Z,6.68
2023-01-05T08:24:18.484Z,7.47
2023-01-05T08:26:49.245Z,7.10
2023-01-05T08:29:16.199Z,7.28
2023-01-05T08:31:43.195Z,6.60
2023-01-05T08:34:11.382Z,7.18
2023-01-05T08:36:38.628Z,5.70
2023-01-05T08:39:07.327Z,6.63
2023-01-05T08:41:40.917Z,7.68
2023-01-05T08:44:13.772Z,6.00
2023-01-05T08:46:43.436Z,6.22
2023-01-05T08:49:10.933Z,7.43
2023-01-05T08:51:39.379Z,6.13
2023-01-05T08:54:10.210Z,7.55
2023-01-05T08:56:39.271Z,6.72
2023-01-05T08:59:07.624Z,6.95
2023-01-05T09:01:35.041Z,5.90
2023-01-05T09:04:02.168Z,6.20
2023-01-05T09:06:32.532Z,6.65
2023-01-05T09:09:01.031Z,5.97
2023-01-05T09:11:28.184Z,5.80
2023-01-05T09:14:00.710Z,6.32
2023-01-05T09:19:18.335Z,7.10
2023-01-05T09:21:45.675Z,6.47
2023-01-05T09:24:13.241Z,7.18
2023-01-05T09:26:41.520Z,6.93
2023-01-05T09:29:17.836Z,6.13
2023-01-05T09:31:46.735Z,6.93
2023-01-05T09:34:19.872Z,8.38
2023-01-05T09:36:49.194Z,7.00
2023-01-05T09:39:16.418Z,6.25
2023-01-05T09:42:14.286Z,6.32
2023-01-05T09:44:59.037Z,6.00
2023-01-05T09:47:43.032Z,5.43
2023-01-05T09:50:20.651Z,6.03
2023-01-05T09:52:49.726Z,6.38
2023-01-05T09:55:21.718Z,5.72
2023-01-05T09:58:31.379Z,6.60
2023-01-05T10:01:16.052Z,6.70
2023-01-05T10:04:04.998Z,6.25
2023-01-05T10:06:39.106Z,5.70
2023-01-05T10:09:07.281Z,6.50
2023-01-05T10:12:08.991Z,6.20
2023-01-05T10:14:43.430Z,5.68
2023-01-05T10:20:33.177Z,5.47
2023-01-05T10:23:11.066Z,6.53
2023-01-05T10:25:59.833Z,6.43
2023-01-05T10:28:51.763Z,6.10
2023-01-05T10:31:29.278Z,6.65
2023-01-05T10:34:34.727Z,5.57
2023-01-05T10:37:22.101Z,5.68
2023-01-05T10:39:58.386Z,6.40
2023-01-05T10:42:49.144Z,7.13
2023-01-05T10:45:22.036Z,6.57
2023-01-05T10:47:52.820Z,5.35
2023-01-05T10:50:42.306Z,6.20
2023-01-05T10:53:12.530Z,6.35
2023-01-05T10:56:06.183Z,5.80
2023-01-05T10:58:44.189Z,6.57
2023-01-05T11:01:31.767Z,5.90
2023-01-05T11:04:33.324Z,6.22
2023-01-05T11:07:07.372Z,6.57
2023-01-05T11:09:41.173Z,6.90
2023-01-05T11:12:19.348Z,5.68
2023-01-05T11:14:58.091Z,7.20
2023-01-05T11:17:28.691Z,6.75
2023-01-05T11:19:57.528Z,7.07
2023-01-05T11:22:40.580Z,6.95
2023-01-05T11:25:28.240Z,7.10
2023-01-05T11:28:23.607Z,6.60
2023-01-05T11:31:03.421Z,6.57
2023-01-05T11:33:34.754Z,7.13
2023-01-05T11:36:05.709Z,6.57
2023-01-05T11:38:35.727Z,7.00
2023-01-05T11:41:03.739Z,6.63
2023-01-05T11:43:34.462Z,6.80
2023-01-05T11:46:07.881Z,8.43
2023-01-05T11:48:36.411Z,7.40
2023-01-05T11:51:03.551Z,7.85
2023-01-05T11:53:34.974Z,6.75
2023-01-05T11:56:05.458Z,7.30
2023-01-05T11:58:45.586Z,7.30
2023-01-05T12:01:17.522Z,6.30
2023-01-05T12:04:11.874Z,8.15
2023-01-05T12:06:51.372Z,7.82
2023-01-05T12:09:34.993Z,7.70
2023-01-05T12:12:26.372Z,6.60
2023-01-05T12:15:34.309Z,6.78
2023-01-05T12:18:05.005Z,7.05
2023-01-05T12:20:50.030Z,6.57
2023-01-05T12:23:38.797Z,6.93
2023-01-05T12:26:43.743Z,6.93
2023-01-05T12:35:57.461Z,6.97
2023-01-05T12:38:38.306Z,6.93
2023-01-05T12:41:14.644Z,7.18
2023-01-05T12:44:10.728Z,7.25
2023-01-05T12:47:11.657Z,8.13
2023-01-05T12:49:55.121Z,7.50
2023-01-05T12:52:35.012Z,7.78
2023-01-05T12:55:22.316Z,8.20
2023-01-05T12:58:04.182Z,7.95
2023-01-05T13:00:37.431Z,6.77
2023-01-05T13:03:20.815Z,8.18
2023-01-05T13:06:07.122Z,6.82
2023-01-05T13:08:44.724Z,7.20
2023-01-05T13:11:44.570Z,7.85
2023-01-05T13:14:22.195Z,5.68
2023-01-05T13:16:58.363Z,6.90
2023-01-05T13:19:50.494Z,6.78
2023-01-05T13:22:27.366Z,6.00
2023-01-05T13:25:06.220Z,5.82
2023-01-05T13:27:33.729Z,5.78
2023-01-05T13:30:02.767Z,5.72
2023-01-05T13:33:05.296Z,5.30
2023-01-05T13:35:37.460Z,4.63
2023-01-05T13:38:32.960Z,4.28
2023-01-05T13:41:29.270Z,4.03
2023-01-05T13:44:15.458Z,3.90
2023-01-05T13:47:27.948Z,4.13
2023-01-05T13:55:14.686Z,4.20
2023-01-05T13:57:52.471Z,4.32
2023-01-05T14:00:43.082Z,3.75
2023-01-05T14:03:10.605Z,4.28
2023-01-05T14:05:55.978Z,4.70
2023-01-05T14:08:37.125Z,4.47
2023-01-05T14:11:25.733Z,4.78
2023-01-05T14:14:08.665Z,4.18
2023-01-05T14:16:38.501Z,5.03
2023-01-05T14:19:33.549Z,4.88
2023-01-05T14:22:21.783Z,5.10
2023-01-05T14:24:52.419Z,5.07
2023-01-05T14:27:24.600Z,4.80
2023-01-05T14:32:30.568Z,4.95
2023-01-05T14:35:17.124Z,3.92
2023-01-05T14:38:14.973Z,4.88
2023-01-05T14:40:52.932Z,5.35
2023-01-05T14:43:35.966Z,5.50
2023-01-05T14:46:17.856Z,5.65
2023-01-05T14:49:05.342Z,5.30
2023-01-05T14:51:36.989Z,5.70
2023-01-05T14:54:06.497Z,4.78
2023-01-05T14:56:37.953Z,4.85
2023-01-05T14:59:13.821Z,4.38
2023-01-05T15:02:00.852Z,4.95
2023-01-05T15:04:36.306Z,4.68
2023-01-05T15:07:33.260Z,4.10
2023-01-05T15:10:17.602Z,4.20
2023-01-05T15:13:36.840Z,4.32
2023-01-05T15:16:34.342Z,5.20
2023-01-05T15:19:01.255Z,4.65
2023-01-05T15:22:18.442Z,4.03
2023-01-05T15:25:10.788Z,4.55
2023-01-05T15:27:48.074Z,4.05
2023-01-05T15:30:44.467Z,4.25
2023-01-05T15:33:30.425Z,4.80
2023-01-05T15:36:03.710Z,4.47
2023-01-05T15:38:45.391Z,4.18
2023-01-05T15:41:14.434Z,4.95
2023-01-05T15:43:43.898Z,5.22
2023-01-05T15:46:13.349Z,4.57
2023-01-05T15:48:49.199Z,5.10
2023-01-05T15:51:30.756Z,5.13
2023-01-05T15:54:01.942Z,4.75
2023-01-05T15:56:41.498Z,5.72
2023-01-05T15:59:47.671Z,5.47
2023-01-05T16:02:24.706Z,5.28
2023-01-05T16:05:13.156Z,5.88
2023-01-05T16:08:01.775Z,5.53
2023-01-05T16:10:39.024Z,6.18
2023-01-05T16:13:18.477Z,6.63
2023-01-05T16:15:49.571Z,6.43
2023-01-05T16:18:25.251Z,7.05
2023-01-05T16:20:55.050Z,6.55
2023-01-05T16:23:36.239Z,7.53
2023-01-05T16:26:05.065Z,7.15
2023-01-05T16:28:35.910Z,6.60
2023-01-05T16:31:22.685Z,6.95
2023-01-05T16:34:03.481Z,6.07
2023-01-05T16:36:34.229Z,5.78
2023-01-05T16:39:22.017Z,5.38
2023-01-05T16:42:07.825Z,6.07
2023-01-05T16:44:37.182Z,6.25
2023-01-05T16:47:15.623Z,7.20
2023-01-05T16:49:57.341Z,8.13
2023-01-05T16:52:28.988Z,7.53
2023-01-05T16:55:28.194Z,8.75
2023-01-05T16:58:30.327Z,8.38
2023-01-05T17:01:18.011Z,8.55
2023-01-05T17:03:52.558Z,6.68
2023-01-05T17:06:30.136Z,6.88
2023-01-05T17:09:00.743Z,6.78
2023-01-05T17:11:34.401Z,6.55
2023-01-05T17:14:04.633Z,7.07
2023-01-05T17:16:31.968Z,8.20
2023-01-05T17:19:02.610Z,8.80
2023-01-05T17:21:33.151Z,8.95
2023-01-05T17:24:03.887Z,8.98
2023-01-05T17:26:37.552Z,9.63
2023-01-05T17:29:11.035Z,8.35
2023-01-05T17:31:39.984Z,8.75
2023-01-05T17:34:07.101Z,9.38
2023-01-05T17:36:36.006Z,9.32
2023-01-05T17:39:05.105Z,9.20
2023-01-05T17:41:33.008Z,9.52
2023-01-05T17:44:00.114Z,9.13
2023-01-05T17:46:32.009Z,8.85
2023-01-05T17:49:02.100Z,7.78
2023-01-05T17:51:33.341Z,7.65
2023-01-05T17:54:05.146Z,7.35
2023-01-05T17:56:59.038Z,6.30
2023-01-05T17:59:46.304Z,5.53
2023-01-05T18:02:46.259Z,5.43
2023-01-05T18:05:16.180Z,5.30
2023-01-05T18:08:10.604Z,5.00
2023-01-05T18:14:23.625Z,5.55
2023-01-05T18:16:53.653Z,5.28
2023-01-05T18:19:26.046Z,5.57
2023-01-05T18:22:15.971Z,5.93
2023-01-05T18:24:47.794Z,6.00
2023-01-05T18:27:38.706Z,6.00
2023-01-05T18:30:14.831Z,7.60
2023-01-05T18:32:45.110Z,5.88
2023-01-05T18:35:12.275Z,5.65
2023-01-05T18:37:42.536Z,5.03
2023-01-05T18:40:10.579Z,4.90
2023-01-05T18:42:39.356Z,5.57
2023-01-05T18:45:19.817Z,4.85
2023-01-05T18:48:48.602Z,4.80
2023-01-05T18:51:15.790Z,4.72
2023-01-05T18:54:14.930Z,4.78
2023-01-05T18:56:45.440Z,5.10
2023-01-05T18:59:38.580Z,4.60
2023-01-05T19:04:39.724Z,4.38
2023-01-05T19:07:07.278Z,4.75
2023-01-05T19:09:35.659Z,5.13
2023-01-05T19:12:03.351Z,5.25
2023-01-05T19:14:30.289Z,5.00
2023-01-05T19:16:57.285Z,5.30
2023-01-05T19:19:26.724Z,4.95
2023-01-05T19:21:54.714Z,6.20
2023-01-05T19:24:24.842Z,5.75
2023-01-05T19:26:52.765Z,5.28
2023-01-05T19:29:20.841Z,6.38
2023-01-05T19:31:49.329Z,6.15
2023-01-05T19:34:19.629Z,6.22
2023-01-05T19:36:47.955Z,6.50
2023-01-05T19:39:19.980Z,5.47
2023-01-05T19:41:53.355Z,5.57
2023-01-05T19:44:22.887Z,4.32
2023-01-05T19:46:54.275Z,4.93
2023-01-05T19:49:26.491Z,4.53
2023-01-05T19:51:54.961Z,4.45
2023-01-05T19:54:26.403Z,4.38
2023-01-05T19:56:56.853Z,4.03
2023-01-05T19:59:43.918Z,4.50
2023-01-05T20:02:12.587Z,4.20
2023-01-05T20:04:42.720Z,3.45
2023-01-05T20:07:11.677Z,3.30
2023-01-05T20:09:38.676Z,3.58
2023-01-05T20:12:14.403Z,3.15
2023-01-05T20:14:43.087Z,3.00
2023-01-05T20:17:12.346Z,3.55
2023-01-05T20:19:40.163Z,2.92
2023-01-05T20:22:13.818Z,3.58
2023-01-05T20:24:43.087Z,3.50
2023-01-05T20:27:13.946Z,2.75
2023-01-05T20:29:41.423Z,3.60
2023-01-05T20:32:16.933Z,3.50
2023-01-05T20:34:52.023Z,4.03
2023-01-05T20:37:23.604Z,4.40
2023-01-05T20:39:50.912Z,4.93
2023-01-05T20:42:20.220Z,4.93
2023-01-05T20:44:47.548Z,5.25
2023-01-05T20:47:17.788Z,5.22
2023-01-05T20:49:47.280Z,6.47
2023-01-05T20:52:17.794Z,6.18
2023-01-05T20:54:44.952Z,5.40
2023-01-05T20:57:13.259Z,7.43
2023-01-05T20:59:40.888Z,6.40
2023-01-05T21:02:22.578Z,6.93
2023-01-05T21:04:53.216Z,6.85
2023-01-05T21:07:23.328Z,6.68
2023-01-05T21:09:51.531Z,5.38
2023-01-05T21:12:21.272Z,6.38
2023-01-05T21:14:57.692Z,5.38
2023-01-05T21:17:33.917Z,4.93
2023-01-05T21:20:05.501Z,4.50
2023-01-05T21:22:33.137Z,4.15
2023-01-05T21:25:00.132Z,4.65
2023-01-05T21:27:30.342Z,4.22
2023-01-05T21:29:57.795Z,3.92
2023-01-05T21:32:25.741Z,3.88
2023-01-05T21:34:57.280Z,4.10
2023-01-05T21:37:24.389Z,3.58
2023-01-05T21:39:52.328Z,3.72
2023-01-05T21:42:38.590Z,3.38
2023-01-05T21:45:09.910Z,2.53
2023-01-05T21:47:40.420Z,2.45
2023-01-05T21:50:37.268Z,2.60
2023-01-05T21:53:23.889Z,2.20
2023-01-05T21:56:12.071Z,2.10
2023-01-05T21:58:39.085Z,2.35
2023-01-05T22:01:07.012Z,2.60
2023-01-05T22:03:35.435Z,2.70
2023-01-05T22:06:02.483Z,2.30
2023-01-05T22:08:29.459Z,1.85
2023-01-05T22:10:57.700Z,2.00
2023-01-05T22:13:30.112Z,2.22
2023-01-05T22:15:58.338Z,2.05
2023-01-05T22:18:27.352Z,2.13
2023-01-05T22:21:04.404Z,1.92
2023-01-05T22:23:33.342Z,1.88
2023-01-05T22:26:07.873Z,2.55
2023-01-05T22:31:20.639Z,2.30
2023-01-05T22:33:51.166Z,1.73
2023-01-05T22:36:20.352Z,2.40
2023-01-05T22:38:50.138Z,1.98
2023-01-05T22:41:22.179Z,2.00
2023-01-05T22:43:51.685Z,1.92
2023-01-05T22:46:28.160Z,1.70
2023-01-05T22:49:00.148Z,2.17
2023-01-05T22:51:29.711Z,2.45
2023-01-05T22:53:59.700Z,2.03
2023-01-05T22:56:28.324Z,2.05
2023-01-05T22:58:57.572Z,2.05
2023-01-05T23:01:45.234Z,2.03
2023-01-05T23:04:16.148Z,2.20
2023-01-05T23:06:43.200Z,2.22
2023-01-05T23:09:17.739Z,2.53
2023-01-05T23:11:47.075Z,2.10
2023-01-05T23:14:17.460Z,2.05
2023-01-05T23:16:47.323Z,2.40
2023-01-05T23:19:16.853Z,2.20
2023-01-05T23:21:44.492Z,1.95
2023-01-05T23:24:20.689Z,1.70
2023-01-05T23:26:48.733Z,1.92
2023-01-05T23:29:15.841Z,1.90
2023-01-05T23:31:43.872Z,1.90
2023-01-05T23:34:11.584Z,1.70
2023-01-05T23:36:41.191Z,1.83
2023-01-05T23:39:08.254Z,1.80
2023-01-05T23:41:35.763Z,1.73
2023-01-05T23:44:02.828Z,0.98
2023-01-05T23:46:29.955Z,2.30
2023-01-05T23:49:00.058Z,1.90
2023-01-05T23:51:27.212Z,1.60
2023-01-05T23:53:54.238Z,1.73
2023-01-05T23:56:29.519Z,1.80
2023-01-05T23:59:05.480Z,1.90
